sensor_id;sensor_type;location;lat;lon;timestamp;pressure;altitude;pressure_sealevel;temperature;humidity
56374;BME280;58212;47.034;7.376;2023-07-13T00:00:35;95496.72;;;18.38;85.03
56374;BME280;58212;47.034;7.376;2023-07-13T00:03:03;95499.44;;;18.33;84.47
56374;BME280;58212;47.034;7.376;2023-07-13T00:05:30;95488.72;;;18.28;85.27
56374;BME280;58212;47.034;7.376;2023-07-13T00:07:57;95476.47;;;18.22;84.57
56374;BME280;58212;47.034;7.376;2023-07-13T00:10:23;95478.81;;;18.33;83.74
56374;BME280;58212;47.034;7.376;2023-07-13T00:12:51;95486.06;;;18.28;83.96
56374;BME280;58212;47.034;7.376;2023-07-13T00:15:24;95480.59;;;18.04;84.96
56374;BME280;58212;47.034;7.376;2023-07-13T00:17:52;95477.19;;;17.88;84.34
56374;BME280;58212;47.034;7.376;2023-07-13T00:20:21;95476.06;;;17.99;85.60
56374;BME280;58212;47.034;7.376;2023-07-13T00:22:48;95478.16;;;18.08;84.69
56374;BME280;58212;47.034;7.376;2023-07-13T00:25:15;95484.81;;;18.15;84.70
56374;BME280;58212;47.034;7.376;2023-07-13T00:27:43;95492.91;;;18.05;85.33
56374;BME280;58212;47.034;7.376;2023-07-13T00:30:10;95493.47;;;17.97;84.95
56374;BME280;58212;47.034;7.376;2023-07-13T00:32:38;95488.13;;;17.92;84.91
56374;BME280;58212;47.034;7.376;2023-07-13T00:35:06;95475.84;;;17.86;85.16
56374;BME280;58212;47.034;7.376;2023-07-13T00:37:33;95479.28;;;17.96;84.77
56374;BME280;58212;47.034;7.376;2023-07-13T00:40:01;95476.34;;;17.93;84.68
56374;BME280;58212;47.034;7.376;2023-07-13T00:42:28;95469.81;;;18.09;84.26
56374;BME280;58212;47.034;7.376;2023-07-13T00:45:07;95478.47;;;17.96;84.56
56374;BME280;58212;47.034;7.376;2023-07-13T00:47:55;95487.56;;;18.00;84.68
56374;BME280;58212;47.034;7.376;2023-07-13T00:50:23;95493.47;;;17.97;85.14
56374;BME280;58212;47.034;7.376;2023-07-13T00:52:53;95485.75;;;17.90;85.53
56374;BME280;58212;47.034;7.376;2023-07-13T00:55:23;95482.28;;;17.90;84.70
56374;BME280;58212;47.034;7.376;2023-07-13T00:57:50;95483.59;;;17.92;85.10
56374;BME280;58212;47.034;7.376;2023-07-13T01:00:17;95474.72;;;17.97;85.30
56374;BME280;58212;47.034;7.376;2023-07-13T01:02:47;95476.97;;;17.75;85.29
56374;BME280;58212;47.034;7.376;2023-07-13T01:05:17;95474.00;;;17.81;85.31
56374;BME280;58212;47.034;7.376;2023-07-13T01:07:45;95470.25;;;17.82;84.89
56374;BME280;58212;47.034;7.376;2023-07-13T01:10:26;95470.00;;;17.79;85.10
56374;BME280;58212;47.034;7.376;2023-07-13T01:12:53;95471.59;;;17.80;85.61
56374;BME280;58212;47.034;7.376;2023-07-13T01:15:36;95463.56;;;17.80;84.80
56374;BME280;58212;47.034;7.376;2023-07-13T01:18:04;95460.09;;;17.79;84.78
56374;BME280;58212;47.034;7.376;2023-07-13T01:20:33;95459.31;;;17.79;84.58
56374;BME280;58212;47.034;7.376;2023-07-13T01:23:05;95456.88;;;17.82;84.88
56374;BME280;58212;47.034;7.376;2023-07-13T01:25:33;95450.47;;;17.78;84.14
56374;BME280;58212;47.034;7.376;2023-07-13T01:28:00;95453.97;;;17.74;84.41
56374;BME280;58212;47.034;7.376;2023-07-13T01:30:27;95456.13;;;17.67;85.89
56374;BME280;58212;47.034;7.376;2023-07-13T01:32:54;95464.97;;;17.62;85.31
56374;BME280;58212;47.034;7.376;2023-07-13T01:35:21;95460.19;;;17.59;84.98
56374;BME280;58212;47.034;7.376;2023-07-13T01:37:47;95460.97;;;17.60;85.80
56374;BME280;58212;47.034;7.376;2023-07-13T01:40:16;95455.88;;;17.63;85.63
56374;BME280;58212;47.034;7.376;2023-07-13T01:42:43;95454.81;;;17.59;84.83
56374;BME280;58212;47.034;7.376;2023-07-13T01:45:10;95446.25;;;17.47;83.61
56374;BME280;58212;47.034;7.376;2023-07-13T01:47:36;95452.47;;;17.37;83.48
56374;BME280;58212;47.034;7.376;2023-07-13T01:50:03;95458.66;;;17.28;83.45
56374;BME280;58212;47.034;7.376;2023-07-13T01:52:30;95456.50;;;17.35;84.23
56374;BME280;58212;47.034;7.376;2023-07-13T01:54:57;95454.66;;;17.20;84.27
56374;BME280;58212;47.034;7.376;2023-07-13T01:57:25;95454.63;;;17.30;83.81
56374;BME280;58212;47.034;7.376;2023-07-13T01:59:52;95460.47;;;17.42;83.10
56374;BME280;58212;47.034;7.376;2023-07-13T02:02:18;95464.50;;;17.40;82.56
56374;BME280;58212;47.034;7.376;2023-07-13T02:04:46;95468.56;;;17.17;83.52
56374;BME280;58212;47.034;7.376;2023-07-13T02:07:13;95472.63;;;16.79;85.79
56374;BME280;58212;47.034;7.376;2023-07-13T02:09:41;95483.31;;;16.84;84.65
56374;BME280;58212;47.034;7.376;2023-07-13T02:12:08;95482.53;;;16.84;85.46
56374;BME280;58212;47.034;7.376;2023-07-13T02:14:36;95485.16;;;16.53;85.48
56374;BME280;58212;47.034;7.376;2023-07-13T02:17:04;95482.81;;;16.72;84.59
56374;BME280;58212;47.034;7.376;2023-07-13T02:19:30;95486.00;;;16.74;85.63
56374;BME280;58212;47.034;7.376;2023-07-13T02:21:57;95480.06;;;16.52;85.14
56374;BME280;58212;47.034;7.376;2023-07-13T02:24:24;95478.53;;;16.61;85.74
56374;BME280;58212;47.034;7.376;2023-07-13T02:26:50;95481.44;;;16.75;84.91
56374;BME280;58212;47.034;7.376;2023-07-13T02:29:17;95485.44;;;16.97;84.50
56374;BME280;58212;47.034;7.376;2023-07-13T02:31:46;95478.78;;;16.90;84.53
56374;BME280;58212;47.034;7.376;2023-07-13T02:34:12;95479.59;;;16.90;84.31
56374;BME280;58212;47.034;7.376;2023-07-13T02:36:39;95472.88;;;16.88;84.27
56374;BME280;58212;47.034;7.376;2023-07-13T02:39:11;95472.63;;;16.84;84.89
56374;BME280;58212;47.034;7.376;2023-07-13T02:41:38;95464.63;;;16.79;84.64
56374;BME280;58212;47.034;7.376;2023-07-13T02:44:05;95472.09;;;16.87;84.77
56374;BME280;58212;47.034;7.376;2023-07-13T02:46:33;95468.34;;;16.88;84.91
56374;BME280;58212;47.034;7.376;2023-07-13T02:49:02;95468.59;;;16.92;84.58
56374;BME280;58212;47.034;7.376;2023-07-13T02:51:29;95467.81;;;16.81;84.33
56374;BME280;58212;47.034;7.376;2023-07-13T02:53:56;95467.00;;;16.86;85.20
56374;BME280;58212;47.034;7.376;2023-07-13T02:56:25;95461.66;;;16.81;84.85
56374;BME280;58212;47.034;7.376;2023-07-13T02:58:53;95452.59;;;16.82;84.98
56374;BME280;58212;47.034;7.376;2023-07-13T03:01:21;95452.88;;;16.80;84.94
56374;BME280;58212;47.034;7.376;2023-07-13T03:03:48;95451.50;;;16.78;85.27
56374;BME280;58212;47.034;7.376;2023-07-13T03:06:16;95456.06;;;16.77;84.94
56374;BME280;58212;47.034;7.376;2023-07-13T03:08:49;95460.34;;;16.83;84.60
56374;BME280;58212;47.034;7.376;2023-07-13T03:11:18;95459.00;;;16.71;85.08
56374;BME280;58212;47.034;7.376;2023-07-13T03:13:52;95452.88;;;16.75;85.19
56374;BME280;58212;47.034;7.376;2023-07-13T03:16:19;95466.22;;;16.75;85.15
56374;BME280;58212;47.034;7.376;2023-07-13T03:18:49;95460.59;;;16.77;85.25
56374;BME280;58212;47.034;7.376;2023-07-13T03:21:18;95463.81;;;16.74;85.43
56374;BME280;58212;47.034;7.376;2023-07-13T03:23:45;95459.81;;;16.71;85.45
56374;BME280;58212;47.034;7.376;2023-07-13T03:26:14;95466.75;;;16.77;85.19
56374;BME280;58212;47.034;7.376;2023-07-13T03:28:42;95467.31;;;16.69;85.19
56374;BME280;58212;47.034;7.376;2023-07-13T03:31:15;95462.22;;;16.73;85.43
56374;BME280;58212;47.034;7.376;2023-07-13T03:33:42;95464.34;;;16.76;85.22
56374;BME280;58212;47.034;7.376;2023-07-13T03:36:13;95460.59;;;16.67;85.94
56374;BME280;58212;47.034;7.376;2023-07-13T03:38:43;95463.50;;;16.55;85.84
56374;BME280;58212;47.034;7.376;2023-07-13T03:41:09;95461.94;;;16.64;85.14
56374;BME280;58212;47.034;7.376;2023-07-13T03:43:36;95456.06;;;16.62;85.42
56374;BME280;58212;47.034;7.376;2023-07-13T03:46:03;95455.28;;;16.72;84.95
56374;BME280;58212;47.034;7.376;2023-07-13T03:48:29;95462.47;;;16.71;85.10
56374;BME280;58212;47.034;7.376;2023-07-13T03:50:56;95453.66;;;16.71;85.20
56374;BME280;58212;47.034;7.376;2023-07-13T03:53:23;95461.16;;;16.79;84.90
56374;BME280;58212;47.034;7.376;2023-07-13T03:55:51;95452.56;;;16.77;85.07
56374;BME280;58212;47.034;7.376;2023-07-13T03:58:30;95450.47;;;16.64;85.30
56374;BME280;58212;47.034;7.376;2023-07-13T04:01:04;95445.09;;;16.53;85.84
56374;BME280;58212;47.034;7.376;2023-07-13T04:03:32;95453.63;;;16.20;87.04
56374;BME280;58212;47.034;7.376;2023-07-13T04:05:59;95468.31;;;16.38;87.21
56374;BME280;58212;47.034;7.376;2023-07-13T04:08:27;95473.13;;;16.36;87.01
56374;BME280;58212;47.034;7.376;2023-07-13T04:10:55;95472.59;;;16.49;86.80
56374;BME280;58212;47.034;7.376;2023-07-13T04:13:23;95476.84;;;16.30;87.11
56374;BME280;58212;47.034;7.376;2023-07-13T04:15:50;95474.22;;;16.40;86.36
56374;BME280;58212;47.034;7.376;2023-07-13T04:18:17;95478.19;;;16.47;86.04
56374;BME280;58212;47.034;7.376;2023-07-13T04:20:45;95489.69;;;16.43;86.18
56374;BME280;58212;47.034;7.376;2023-07-13T04:23:11;95498.56;;;16.64;85.80
56374;BME280;58212;47.034;7.376;2023-07-13T04:25:38;95498.84;;;16.72;85.32
56374;BME280;58212;47.034;7.376;2023-07-13T04:28:06;95496.16;;;16.72;85.58
56374;BME280;58212;47.034;7.376;2023-07-13T04:30:33;95507.34;;;16.49;85.44
56374;BME280;58212;47.034;7.376;2023-07-13T04:32:59;95511.09;;;16.63;85.78
56374;BME280;58212;47.034;7.376;2023-07-13T04:35:26;95511.91;;;16.64;85.14
56374;BME280;58212;47.034;7.376;2023-07-13T04:37:53;95509.78;;;16.66;85.32
56374;BME280;58212;47.034;7.376;2023-07-13T04:40:20;95509.25;;;16.64;85.26
56374;BME280;58212;47.034;7.376;2023-07-13T04:42:47;95506.53;;;16.48;86.18
56374;BME280;58212;47.034;7.376;2023-07-13T04:45:15;95508.97;;;16.95;84.72
56374;BME280;58212;47.034;7.376;2023-07-13T04:47:42;95503.34;;;16.77;84.93
56374;BME280;58212;47.034;7.376;2023-07-13T04:50:09;95508.94;;;16.50;86.00
56374;BME280;58212;47.034;7.376;2023-07-13T04:52:37;95513.53;;;16.65;86.50
56374;BME280;58212;47.034;7.376;2023-07-13T04:55:04;95519.13;;;16.68;85.65
56374;BME280;58212;47.034;7.376;2023-07-13T04:57:32;95531.41;;;16.84;85.44
56374;BME280;58212;47.034;7.376;2023-07-13T04:59:59;95528.47;;;16.71;85.44
56374;BME280;58212;47.034;7.376;2023-07-13T05:02:27;95517.50;;;16.62;86.30
56374;BME280;58212;47.034;7.376;2023-07-13T05:04:56;95513.50;;;16.70;85.45
56374;BME280;58212;47.034;7.376;2023-07-13T05:07:23;95514.84;;;16.77;85.05
56374;BME280;58212;47.034;7.376;2023-07-13T05:09:49;95516.75;;;16.87;85.28
56374;BME280;58212;47.034;7.376;2023-07-13T05:12:16;95521.00;;;16.83;85.39
56374;BME280;58212;47.034;7.376;2023-07-13T05:14:43;95526.59;;;16.66;85.79
56374;BME280;58212;47.034;7.376;2023-07-13T05:17:10;95533.28;;;16.64;86.32
56374;BME280;58212;47.034;7.376;2023-07-13T05:19:38;95542.13;;;16.64;85.79
56374;BME280;58212;47.034;7.376;2023-07-13T05:22:06;95543.19;;;16.78;86.25
56374;BME280;58212;47.034;7.376;2023-07-13T05:24:33;95545.84;;;16.58;86.14
56374;BME280;58212;47.034;7.376;2023-07-13T05:27:00;95551.47;;;16.56;86.61
56374;BME280;58212;47.034;7.376;2023-07-13T05:29:27;95563.78;;;16.73;86.10
56374;BME280;58212;47.034;7.376;2023-07-13T05:31:54;95564.00;;;16.51;86.37
56374;BME280;58212;47.034;7.376;2023-07-13T05:34:20;95556.47;;;16.38;87.11
56374;BME280;58212;47.034;7.376;2023-07-13T05:36:48;95552.72;;;16.39;87.00
56374;BME280;58212;47.034;7.376;2023-07-13T05:39:16;95556.56;;;16.68;87.02
56374;BME280;58212;47.034;7.376;2023-07-13T05:41:42;95547.47;;;16.69;85.93
56374;BME280;58212;47.034;7.376;2023-07-13T05:44:09;95550.41;;;16.78;86.03
56374;BME280;58212;47.034;7.376;2023-07-13T05:46:35;95550.13;;;16.59;85.83
56374;BME280;58212;47.034;7.376;2023-07-13T05:49:02;95552.03;;;16.84;86.10
56374;BME280;58212;47.034;7.376;2023-07-13T05:51:29;95556.84;;;17.12;85.74
56374;BME280;58212;47.034;7.376;2023-07-13T05:53:57;95551.47;;;17.07;84.69
56374;BME280;58212;47.034;7.376;2023-07-13T05:56:24;95552.28;;;17.13;84.34
56374;BME280;58212;47.034;7.376;2023-07-13T05:58:52;95552.56;;;17.06;84.89
56374;BME280;58212;47.034;7.376;2023-07-13T06:01:18;95564.84;;;17.07;84.60
56374;BME280;58212;47.034;7.376;2023-07-13T06:03:46;95563.25;;;16.86;85.90
56374;BME280;58212;47.034;7.376;2023-07-13T06:06:13;95571.53;;;16.79;86.12
56374;BME280;58212;47.034;7.376;2023-07-13T06:08:40;95572.88;;;16.87;85.34
56374;BME280;58212;47.034;7.376;2023-07-13T06:11:13;95575.28;;;17.03;85.37
56374;BME280;58212;47.034;7.376;2023-07-13T06:13:41;95574.50;;;17.13;84.84
56374;BME280;58212;47.034;7.376;2023-07-13T06:16:08;95576.09;;;17.09;84.40
56374;BME280;58212;47.034;7.376;2023-07-13T06:18:35;95575.53;;;17.17;84.46
56374;BME280;58212;47.034;7.376;2023-07-13T06:21:06;95573.41;;;17.19;83.73
56374;BME280;58212;47.034;7.376;2023-07-13T06:23:32;95575.81;;;17.31;83.73
56374;BME280;58212;47.034;7.376;2023-07-13T06:25:59;95576.59;;;17.26;84.68
56374;BME280;58212;47.034;7.376;2023-07-13T06:28:28;95576.34;;;17.38;84.45
56374;BME280;58212;47.034;7.376;2023-07-13T06:30:54;95568.84;;;17.50;84.33
56374;BME280;58212;47.034;7.376;2023-07-13T06:33:21;95581.13;;;17.71;83.40
56374;BME280;58212;47.034;7.376;2023-07-13T06:35:48;95586.47;;;17.61;83.43
56374;BME280;58212;47.034;7.376;2023-07-13T06:38:15;95578.44;;;17.66;83.55
56374;BME280;58212;47.034;7.376;2023-07-13T06:40:41;95575.47;;;17.83;84.04
56374;BME280;58212;47.034;7.376;2023-07-13T06:43:08;95577.31;;;17.92;83.84
56374;BME280;58212;47.034;7.376;2023-07-13T06:45:40;95589.09;;;17.91;82.16
56374;BME280;58212;47.034;7.376;2023-07-13T06:48:07;95590.38;;;18.04;83.26
56374;BME280;58212;47.034;7.376;2023-07-13T06:50:34;95584.47;;;18.12;82.67
56374;BME280;58212;47.034;7.376;2023-07-13T06:53:01;95585.78;;;18.20;81.81
56374;BME280;58212;47.034;7.376;2023-07-13T06:55:27;95593.31;;;18.08;83.36
56374;BME280;58212;47.034;7.376;2023-07-13T06:57:54;95594.38;;;18.06;84.24
56374;BME280;58212;47.034;7.376;2023-07-13T07:00:21;95601.63;;;18.06;83.68
56374;BME280;58212;47.034;7.376;2023-07-13T07:02:49;95600.50;;;18.17;83.53
56374;BME280;58212;47.034;7.376;2023-07-13T07:05:16;95598.91;;;18.16;83.60
56374;BME280;58212;47.034;7.376;2023-07-13T07:07:43;95604.25;;;18.16;83.87
56374;BME280;58212;47.034;7.376;2023-07-13T07:10:09;95599.44;;;18.18;83.59
56374;BME280;58212;47.034;7.376;2023-07-13T07:12:36;95612.59;;;18.10;82.98
56374;BME280;58212;47.034;7.376;2023-07-13T07:15:03;95616.28;;;18.24;84.14
56374;BME280;58212;47.034;7.376;2023-07-13T07:17:30;95617.38;;;18.18;84.33
56374;BME280;58212;47.034;7.376;2023-07-13T07:19:58;95613.38;;;18.15;82.83
56374;BME280;58212;47.034;7.376;2023-07-13T07:22:25;95620.06;;;18.23;82.44
56374;BME280;58212;47.034;7.376;2023-07-13T07:24:52;95616.88;;;18.05;82.28
56374;BME280;58212;47.034;7.376;2023-07-13T07:27:19;95616.91;;;18.00;83.79
56374;BME280;58212;47.034;7.376;2023-07-13T07:29:46;95615.09;;;17.81;81.29
56374;BME280;58212;47.034;7.376;2023-07-13T07:32:13;95619.75;;;18.29;80.13
56374;BME280;58212;47.034;7.376;2023-07-13T07:34:39;95621.66;;;18.19;77.00
56374;BME280;58212;47.034;7.376;2023-07-13T07:37:11;95616.28;;;18.24;78.60
56374;BME280;58212;47.034;7.376;2023-07-13T07:39:38;95624.72;;;18.61;76.16
56374;BME280;58212;47.034;7.376;2023-07-13T07:42:06;95626.81;;;18.74;76.29
56374;BME280;58212;47.034;7.376;2023-07-13T07:44:33;95616.59;;;18.71;75.71
56374;BME280;58212;47.034;7.376;2023-07-13T07:47:00;95625.84;;;18.94;74.97
56374;BME280;58212;47.034;7.376;2023-07-13T07:49:27;95622.69;;;19.26;76.07
56374;BME280;58212;47.034;7.376;2023-07-13T07:51:54;95618.50;;;19.48;76.92
56374;BME280;58212;47.034;7.376;2023-07-13T07:54:22;95627.75;;;19.66;76.65
56374;BME280;58212;47.034;7.376;2023-07-13T07:56:49;95630.09;;;19.44;74.01
56374;BME280;58212;47.034;7.376;2023-07-13T07:59:15;95623.13;;;19.38;76.72
56374;BME280;58212;47.034;7.376;2023-07-13T08:01:42;95627.19;;;19.30;74.35
56374;BME280;58212;47.034;7.376;2023-07-13T08:04:10;95627.63;;;19.09;75.26
56374;BME280;58212;47.034;7.376;2023-07-13T08:06:37;95635.28;;;18.86;76.21
56374;BME280;58212;47.034;7.376;2023-07-13T08:09:04;95631.22;;;18.94;76.50
56374;BME280;58212;47.034;7.376;2023-07-13T08:11:32;95630.88;;;19.06;78.41
56374;BME280;58212;47.034;7.376;2023-07-13T08:13:59;95630.25;;;18.80;79.00
56374;BME280;58212;47.034;7.376;2023-07-13T08:16:26;95626.81;;;19.13;75.69
56374;BME280;58212;47.034;7.376;2023-07-13T08:18:52;95628.75;;;19.41;76.74
56374;BME280;58212;47.034;7.376;2023-07-13T08:21:19;95616.34;;;20.27;74.34
56374;BME280;58212;47.034;7.376;2023-07-13T08:23:47;95616.34;;;20.27;70.00
56374;BME280;58212;47.034;7.376;2023-07-13T08:26:13;95625.16;;;20.09;69.89
56374;BME280;58212;47.034;7.376;2023-07-13T08:28:42;95624.13;;;20.05;69.89
56374;BME280;58212;47.034;7.376;2023-07-13T08:31:09;95616.06;;;20.52;69.34
56374;BME280;58212;47.034;7.376;2023-07-13T08:33:36;95615.63;;;20.64;68.11
56374;BME280;58212;47.034;7.376;2023-07-13T08:36:04;95618.63;;;20.81;67.94
56374;BME280;58212;47.034;7.376;2023-07-13T08:38:30;95608.84;;;20.47;67.47
56374;BME280;58212;47.034;7.376;2023-07-13T08:40:57;95616.47;;;21.02;66.37
56374;BME280;58212;47.034;7.376;2023-07-13T08:43:26;95611.66;;;21.17;65.29
56374;BME280;58212;47.034;7.376;2023-07-13T08:46:00;95618.50;;;20.72;67.39
56374;BME280;58212;47.034;7.376;2023-07-13T08:48:29;95627.13;;;19.74;68.90
56374;BME280;58212;47.034;7.376;2023-07-13T08:51:02;95624.88;;;20.10;68.91
56374;BME280;58212;47.034;7.376;2023-07-13T08:53:34;95633.25;;;20.04;66.94
56374;BME280;58212;47.034;7.376;2023-07-13T08:56:04;95628.28;;;20.16;69.79
56374;BME280;58212;47.034;7.376;2023-07-13T08:58:36;95622.72;;;20.36;66.81
56374;BME280;58212;47.034;7.376;2023-07-13T09:01:14;95634.00;;;19.57;67.66
56374;BME280;58212;47.034;7.376;2023-07-13T09:03:47;95633.44;;;20.12;69.66
56374;BME280;58212;47.034;7.376;2023-07-13T09:06:17;95630.94;;;20.44;69.85
56374;BME280;58212;47.034;7.376;2023-07-13T09:08:54;95630.22;;;20.39;68.99
56374;BME280;58212;47.034;7.376;2023-07-13T09:11:35;95632.59;;;20.40;72.38
56374;BME280;58212;47.034;7.376;2023-07-13T09:17:11;95641.00;;;20.58;64.25
56374;BME280;58212;47.034;7.376;2023-07-13T09:19:40;95642.63;;;20.77;64.90
56374;BME280;58212;47.034;7.376;2023-07-13T09:22:10;95641.03;;;20.76;64.07
56374;BME280;58212;47.034;7.376;2023-07-13T09:24:50;95634.81;;;20.57;63.92
56374;BME280;58212;47.034;7.376;2023-07-13T09:27:23;95638.63;;;20.75;65.09
56374;BME280;58212;47.034;7.376;2023-07-13T09:29:55;95637.66;;;20.84;64.94
56374;BME280;58212;47.034;7.376;2023-07-13T09:32:26;95642.13;;;20.75;68.12
56374;BME280;58212;47.034;7.376;2023-07-13T09:34:54;95639.56;;;20.65;70.05
56374;BME280;58212;47.034;7.376;2023-07-13T09:37:22;95642.75;;;20.67;69.36
56374;BME280;58212;47.034;7.376;2023-07-13T09:39:52;95642.09;;;20.57;68.02
56374;BME280;58212;47.034;7.376;2023-07-13T09:42:21;95635.78;;;20.66;63.74
56374;BME280;58212;47.034;7.376;2023-07-13T09:44:54;95641.69;;;20.87;62.66
56374;BME280;58212;47.034;7.376;2023-07-13T09:47:22;95641.31;;;20.75;62.45
56374;BME280;58212;47.034;7.376;2023-07-13T09:49:55;95637.69;;;21.03;61.16
56374;BME280;58212;47.034;7.376;2023-07-13T09:52:24;95634.03;;;21.82;60.98
56374;BME280;58212;47.034;7.376;2023-07-13T09:54:54;95638.47;;;21.41;56.16
56374;BME280;58212;47.034;7.376;2023-07-13T09:57:26;95634.16;;;21.59;53.98
56374;BME280;58212;47.034;7.376;2023-07-13T09:59:54;95639.28;;;21.74;57.90
56374;BME280;58212;47.034;7.376;2023-07-13T10:02:27;95641.34;;;21.96;53.91
56374;BME280;58212;47.034;7.376;2023-07-13T10:05:00;95648.56;;;22.14;52.34
56374;BME280;58212;47.034;7.376;2023-07-13T10:07:29;95646.16;;;21.80;47.77
56374;BME280;58212;47.034;7.376;2023-07-13T10:09:57;95648.88;;;22.12;53.78
56374;BME280;58212;47.034;7.376;2023-07-13T10:12:26;95653.19;;;22.27;52.60
56374;BME280;58212;47.034;7.376;2023-07-13T10:14:55;95650.28;;;22.23;56.09
56374;BME280;58212;47.034;7.376;2023-07-13T10:17:27;95652.56;;;22.57;56.77
56374;BME280;58212;47.034;7.376;2023-07-13T10:19:59;95644.09;;;22.77;56.92
56374;BME280;58212;47.034;7.376;2023-07-13T10:22:37;95644.06;;;22.91;57.98
56374;BME280;58212;47.034;7.376;2023-07-13T10:25:14;95642.88;;;22.83;57.04
56374;BME280;58212;47.034;7.376;2023-07-13T10:27:41;95641.75;;;22.03;57.89
56374;BME280;58212;47.034;7.376;2023-07-13T10:30:13;95636.38;;;22.03;56.12
56374;BME280;58212;47.034;7.376;2023-07-13T10:32:42;95632.19;;;22.51;58.07
56374;BME280;58212;47.034;7.376;2023-07-13T10:35:13;95632.38;;;22.27;56.13
56374;BME280;58212;47.034;7.376;2023-07-13T10:37:44;95626.78;;;22.51;56.47
56374;BME280;58212;47.034;7.376;2023-07-13T10:40:16;95632.56;;;23.21;55.67
56374;BME280;58212;47.034;7.376;2023-07-13T10:42:46;95641.59;;;22.40;59.38
56374;BME280;58212;47.034;7.376;2023-07-13T10:45:16;95640.94;;;22.98;57.13
56374;BME280;58212;47.034;7.376;2023-07-13T10:47:43;95633.91;;;22.74;57.41
56374;BME280;58212;47.034;7.376;2023-07-13T10:50:17;95634.97;;;22.46;57.09
56374;BME280;58212;47.034;7.376;2023-07-13T10:52:46;95635.59;;;22.70;55.10
56374;BME280;58212;47.034;7.376;2023-07-13T10:55:33;95627.16;;;23.21;55.09
56374;BME280;58212;47.034;7.376;2023-07-13T10:58:02;95623.00;;;23.82;54.10
56374;BME280;58212;47.034;7.376;2023-07-13T11:00:44;95625.88;;;23.55;53.67
56374;BME280;58212;47.034;7.376;2023-07-13T11:03:14;95627.75;;;23.76;52.92
56374;BME280;58212;47.034;7.376;2023-07-13T11:05:42;95626.88;;;23.45;54.30
56374;BME280;58212;47.034;7.376;2023-07-13T11:08:16;95622.53;;;23.58;54.99
56374;BME280;58212;47.034;7.376;2023-07-13T11:10:48;95623.88;;;23.69;55.06
56374;BME280;58212;47.034;7.376;2023-07-13T11:16:34;95616.22;;;23.62;52.26
56374;BME280;58212;47.034;7.376;2023-07-13T11:22:24;95635.88;;;23.18;55.27
56374;BME280;58212;47.034;7.376;2023-07-13T11:24:58;95632.25;;;23.90;53.02
56374;BME280;58212;47.034;7.376;2023-07-13T11:27:37;95627.66;;;23.90;52.61
56374;BME280;58212;47.034;7.376;2023-07-13T11:30:20;95631.88;;;23.16;50.21
56374;BME280;58212;47.034;7.376;2023-07-13T11:32:50;95628.09;;;23.39;49.81
56374;BME280;58212;47.034;7.376;2023-07-13T11:35:22;95632.63;;;23.08;52.82
56374;BME280;58212;47.034;7.376;2023-07-13T11:37:51;95620.56;;;23.72;50.49
56374;BME280;58212;47.034;7.376;2023-07-13T11:40:17;95621.28;;;23.64;49.85
56374;BME280;58212;47.034;7.376;2023-07-13T11:42:44;95620.00;;;23.61;51.79
56374;BME280;58212;47.034;7.376;2023-07-13T11:45:19;95625.53;;;24.09;51.19
56374;BME280;58212;47.034;7.376;2023-07-13T11:47:48;95613.69;;;24.27;48.03
56374;BME280;58212;47.034;7.376;2023-07-13T11:50:19;95622.78;;;23.12;47.20
56374;BME280;58212;47.034;7.376;2023-07-13T11:52:46;95614.19;;;23.46;47.01
56374;BME280;58212;47.034;7.376;2023-07-13T11:55:17;95616.75;;;23.73;47.89
56374;BME280;58212;47.034;7.376;2023-07-13T11:57:45;95619.47;;;23.73;47.22
56374;BME280;58212;47.034;7.376;2023-07-13T12:00:15;95610.41;;;24.08;45.60
56374;BME280;58212;47.034;7.376;2023-07-13T12:02:45;95603.81;;;24.23;47.40
56374;BME280;58212;47.034;7.376;2023-07-13T12:05:14;95620.72;;;23.31;49.95
56374;BME280;58212;47.034;7.376;2023-07-13T12:07:43;95621.16;;;22.88;49.58
56374;BME280;58212;47.034;7.376;2023-07-13T12:10:18;95606.25;;;23.49;48.26
56374;BME280;58212;47.034;7.376;2023-07-13T12:12:48;95604.19;;;24.08;47.45
56374;BME280;58212;47.034;7.376;2023-07-13T12:15:15;95602.03;;;24.66;47.62
56374;BME280;58212;47.034;7.376;2023-07-13T12:17:41;95600.97;;;23.97;47.51
56374;BME280;58212;47.034;7.376;2023-07-13T12:20:19;95602.91;;;24.05;49.16
56374;BME280;58212;47.034;7.376;2023-07-13T12:22:47;95599.75;;;24.12;46.32
56374;BME280;58212;47.034;7.376;2023-07-13T12:25:16;95602.59;;;24.38;45.76
56374;BME280;58212;47.034;7.376;2023-07-13T12:27:47;95607.44;;;23.57;47.13
56374;BME280;58212;47.034;7.376;2023-07-13T12:30:25;95593.78;;;23.62;47.62
56374;BME280;58212;47.034;7.376;2023-07-13T12:33:00;95593.44;;;24.81;47.28
56374;BME280;58212;47.034;7.376;2023-07-13T12:35:29;95593.28;;;24.61;45.74
56374;BME280;58212;47.034;7.376;2023-07-13T12:38:01;95593.00;;;24.23;44.05
56374;BME280;58212;47.034;7.376;2023-07-13T12:40:32;95594.25;;;23.86;44.71
56374;BME280;58212;47.034;7.376;2023-07-13T12:43:00;95590.41;;;23.56;45.64
56374;BME280;58212;47.034;7.376;2023-07-13T12:45:30;95585.31;;;23.85;45.52
56374;BME280;58212;47.034;7.376;2023-07-13T12:47:58;95576.41;;;24.64;45.71
56374;BME280;58212;47.034;7.376;2023-07-13T12:50:30;95572.69;;;24.43;49.08
56374;BME280;58212;47.034;7.376;2023-07-13T12:53:03;95577.44;;;24.37;44.94
56374;BME280;58212;47.034;7.376;2023-07-13T12:55:40;95583.13;;;23.88;45.98
56374;BME280;58212;47.034;7.376;2023-07-13T12:58:16;95583.13;;;23.88;44.73
56374;BME280;58212;47.034;7.376;2023-07-13T13:00:48;95588.78;;;24.08;45.03
56374;BME280;58212;47.034;7.376;2023-07-13T13:03:23;95575.03;;;25.09;44.36
56374;BME280;58212;47.034;7.376;2023-07-13T13:05:57;95571.69;;;23.91;43.37
56374;BME280;58212;47.034;7.376;2023-07-13T13:08:25;95576.03;;;24.40;44.34
56374;BME280;58212;47.034;7.376;2023-07-13T13:10:53;95587.34;;;24.11;42.90
56374;BME280;58212;47.034;7.376;2023-07-13T13:13:20;95584.69;;;23.89;45.57
56374;BME280;58212;47.034;7.376;2023-07-13T13:15:46;95578.56;;;24.45;44.18
56374;BME280;58212;47.034;7.376;2023-07-13T13:18:18;95579.44;;;24.71;43.49